sensor_id;sensor_type;location;lat;lon;timestamp;pressure;altitude;pressure_sealevel;temperature;humidity
4024;BME280;2026;51.002;13.668;2022-08-11T00:02:02;99869.94;;;16.37;51.03
4024;BME280;2026;51.002;13.668;2022-08-11T00:07:17;99881.13;;;16.05;52.21
4024;BME280;2026;51.002;13.668;2022-08-11T00:12:21;99870.66;;;16.16;51.52
4024;BME280;2026;51.002;13.668;2022-08-11T00:17:27;99871.94;;;16.13;51.98
4024;BME280;2026;51.002;13.668;2022-08-11T00:22:35;99878.78;;;15.63;53.14
4024;BME280;2026;51.002;13.668;2022-08-11T00:27:40;99885.00;;;15.85;52.78
4024;BME280;2026;51.002;13.668;2022-08-11T00:32:52;99885.16;;;15.79;52.79
4024;BME280;2026;51.002;13.668;2022-08-11T00:37:58;99885.63;;;15.76;53.00
4024;BME280;2026;51.002;13.668;2022-08-11T00:43:14;99888.13;;;15.65;53.36
4024;BME280;2026;51.002;13.668;2022-08-11T00:48:25;99895.03;;;15.66;52.81
4024;BME280;2026;51.002;13.668;2022-08-11T00:53:38;99891.63;;;15.13;55.10
4024;BME280;2026;51.002;13.668;2022-08-11T00:59:19;99884.50;;;15.42;53.45
4024;BME280;2026;51.002;13.668;2022-08-11T01:05:03;99880.47;;;15.40;53.66
4024;BME280;2026;51.002;13.668;2022-08-11T01:10:31;99885.16;;;15.21;54.71
4024;BME280;2026;51.002;13.668;2022-08-11T01:15:57;99884.69;;;15.24;54.15
4024;BME280;2026;51.002;13.668;2022-08-11T01:21:45;99885.75;;;15.23;54.49
4024;BME280;2026;51.002;13.668;2022-08-11T01:27:31;99899.00;;;15.23;54.70
4024;BME280;2026;51.002;13.668;2022-08-11T01:33:07;99888.75;;;15.14;54.79
4024;BME280;2026;51.002;13.668;2022-08-11T01:44:12;99890.50;;;14.97;55.22
4024;BME280;2026;51.002;13.668;2022-08-11T01:49:43;99887.16;;;14.77;55.87
4024;BME280;2026;51.002;13.668;2022-08-11T01:55:14;99883.50;;;14.79;55.87
4024;BME280;2026;51.002;13.668;2022-08-11T02:00:26;99878.53;;;14.70;56.08
4024;BME280;2026;51.002;13.668;2022-08-11T02:05:46;99879.22;;;14.77;55.71
4024;BME280;2026;51.002;13.668;2022-08-11T02:11:13;99874.88;;;14.47;57.05
4024;BME280;2026;51.002;13.668;2022-08-11T02:16:55;99874.63;;;14.49;56.62
4024;BME280;2026;51.002;13.668;2022-08-11T02:22:05;99873.50;;;14.57;56.59
4024;BME280;2026;51.002;13.668;2022-08-11T02:27:35;99870.50;;;14.41;56.79
4024;BME280;2026;51.002;13.668;2022-08-11T02:32:49;99865.66;;;14.38;57.07
4024;BME280;2026;51.002;13.668;2022-08-11T02:38:16;99871.63;;;14.33;57.06
4024;BME280;2026;51.002;13.668;2022-08-11T02:43:27;99872.78;;;14.26;57.43
4024;BME280;2026;51.002;13.668;2022-08-11T02:48:55;99878.44;;;14.17;57.59
4024;BME280;2026;51.002;13.668;2022-08-11T02:54:23;99875.06;;;14.10;57.73
4024;BME280;2026;51.002;13.668;2022-08-11T02:59:40;99882.63;;;13.94;58.27
4024;BME280;2026;51.002;13.668;2022-08-11T03:10:21;99890.56;;;13.94;58.42
4024;BME280;2026;51.002;13.668;2022-08-11T03:15:28;99889.28;;;13.85;58.33
4024;BME280;2026;51.002;13.668;2022-08-11T03:21:06;99891.44;;;13.76;59.05
4024;BME280;2026;51.002;13.668;2022-08-11T03:26:22;99898.47;;;13.64;59.87
4024;BME280;2026;51.002;13.668;2022-08-11T03:31:31;99901.00;;;13.59;59.63
4024;BME280;2026;51.002;13.668;2022-08-11T03:37:07;99887.00;;;13.39;60.59
4024;BME280;2026;51.002;13.668;2022-08-11T03:42:23;99886.41;;;13.37;60.25
4024;BME280;2026;51.002;13.668;2022-08-11T03:48:01;99889.97;;;13.31;60.47
4024;BME280;2026;51.002;13.668;2022-08-11T03:53:14;99888.97;;;13.44;60.18
4024;BME280;2026;51.002;13.668;2022-08-11T03:58:33;99891.50;;;13.20;61.46
4024;BME280;2026;51.002;13.668;2022-08-11T04:09:50;99882.56;;;13.52;60.03
4024;BME280;2026;51.002;13.668;2022-08-11T04:15:11;99876.88;;;13.36;60.62
4024;BME280;2026;51.002;13.668;2022-08-11T04:20:49;99876.97;;;13.60;59.78
4024;BME280;2026;51.002;13.668;2022-08-11T04:26:10;99876.34;;;13.46;60.35
4024;BME280;2026;51.002;13.668;2022-08-11T04:31:34;99872.03;;;13.33;61.04
4024;BME280;2026;51.002;13.668;2022-08-11T04:37:10;99877.00;;;13.72;60.28
4024;BME280;2026;51.002;13.668;2022-08-11T04:48:47;99871.75;;;17.16;50.31
4024;BME280;2026;51.002;13.668;2022-08-11T04:54:23;99872.00;;;17.64;49.20
4024;BME280;2026;51.002;13.668;2022-08-11T05:00:04;99869.66;;;16.56;51.76
4024;BME280;2026;51.002;13.668;2022-08-11T05:05:35;99876.16;;;16.65;52.02
4024;BME280;2026;51.002;13.668;2022-08-11T05:11:06;99863.44;;;16.28;52.78
4024;BME280;2026;51.002;13.668;2022-08-11T05:16:17;99873.56;;;16.31;53.48
4024;BME280;2026;51.002;13.668;2022-08-11T05:21:41;99877.59;;;16.34;53.16
4024;BME280;2026;51.002;13.668;2022-08-11T05:27:06;99892.03;;;17.22;50.94
4024;BME280;2026;51.002;13.668;2022-08-11T05:32:34;99881.47;;;17.05;51.43
4024;BME280;2026;51.002;13.668;2022-08-11T05:38:03;99885.31;;;17.14;51.24
4024;BME280;2026;51.002;13.668;2022-08-11T05:43:29;99888.56;;;17.44;50.20
4024;BME280;2026;51.002;13.668;2022-08-11T05:49:09;99885.44;;;17.52;50.83
4024;BME280;2026;51.002;13.668;2022-08-11T05:54:34;99893.03;;;17.98;50.03
4024;BME280;2026;51.002;13.668;2022-08-11T05:59:59;99893.56;;;17.95;49.37
4024;BME280;2026;51.002;13.668;2022-08-11T06:05:23;99887.16;;;18.62;47.58
4024;BME280;2026;51.002;13.668;2022-08-11T06:10:31;99891.81;;;19.66;46.37
4024;BME280;2026;51.002;13.668;2022-08-11T06:15:43;99892.38;;;20.31;44.22
4024;BME280;2026;51.002;13.668;2022-08-11T06:20:48;99879.63;;;21.49;42.19
4024;BME280;2026;51.002;13.668;2022-08-11T06:25:53;99887.69;;;21.89;41.39
4024;BME280;2026;51.002;13.668;2022-08-11T06:30:58;99894.66;;;21.90;41.03
4024;BME280;2026;51.002;13.668;2022-08-11T06:36:03;99889.88;;;22.17;41.15
4024;BME280;2026;51.002;13.668;2022-08-11T06:41:17;99893.66;;;21.81;42.12
4024;BME280;2026;51.002;13.668;2022-08-11T06:46:35;99900.47;;;22.32;41.46
4024;BME280;2026;51.002;13.668;2022-08-11T06:51:39;99900.94;;;22.88;41.15
4024;BME280;2026;51.002;13.668;2022-08-11T06:56:45;99893.03;;;22.29;40.45
4024;BME280;2026;51.002;13.668;2022-08-11T07:02:29;99901.72;;;22.10;40.35
4024;BME280;2026;51.002;13.668;2022-08-11T07:13:37;99896.97;;;22.61;38.30
4024;BME280;2026;51.002;13.668;2022-08-11T07:19:01;99896.19;;;22.85;38.04
4024;BME280;2026;51.002;13.668;2022-08-11T07:24:25;99890.38;;;23.79;35.84
4024;BME280;2026;51.002;13.668;2022-08-11T07:30:07;99900.41;;;22.91;37.45
4024;BME280;2026;51.002;13.668;2022-08-11T07:35:12;99889.88;;;23.58;36.64
4024;BME280;2026;51.002;13.668;2022-08-11T07:40:20;99898.78;;;22.90;37.03
4024;BME280;2026;51.002;13.668;2022-08-11T07:45:26;99894.47;;;24.38;34.86
4024;BME280;2026;51.002;13.668;2022-08-11T07:50:48;99884.66;;;24.75;33.49
4024;BME280;2026;51.002;13.668;2022-08-11T07:56:09;99894.50;;;23.90;34.97
4024;BME280;2026;51.002;13.668;2022-08-11T08:01:24;99895.44;;;25.40;32.47
4024;BME280;2026;51.002;13.668;2022-08-11T08:06:45;99887.66;;;26.38;30.11
4024;BME280;2026;51.002;13.668;2022-08-11T08:12:07;99884.88;;;26.12;31.32
4024;BME280;2026;51.002;13.668;2022-08-11T08:17:31;99882.66;;;26.55;28.16
4024;BME280;2026;51.002;13.668;2022-08-11T08:23:12;99872.09;;;25.95;30.12
4024;BME280;2026;51.002;13.668;2022-08-11T08:28:18;99872.16;;;26.44;29.44
4024;BME280;2026;51.002;13.668;2022-08-11T08:33:27;99868.53;;;27.16;28.89
4024;BME280;2026;51.002;13.668;2022-08-11T08:38:31;99872.13;;;25.35;31.54
4024;BME280;2026;51.002;13.668;2022-08-11T08:43:35;99868.72;;;25.44;31.36
4024;BME280;2026;51.002;13.668;2022-08-11T08:48:51;99853.13;;;25.86;30.46
4024;BME280;2026;51.002;13.668;2022-08-11T08:53:59;99843.94;;;26.10;29.01
4024;BME280;2026;51.002;13.668;2022-08-11T08:59:05;99842.94;;;27.57;28.20
4024;BME280;2026;51.002;13.668;2022-08-11T09:04:12;99852.47;;;27.11;28.79
4024;BME280;2026;51.002;13.668;2022-08-11T09:09:21;99846.16;;;29.06;26.34
4024;BME280;2026;51.002;13.668;2022-08-11T09:14:26;99839.81;;;28.03;27.06
4024;BME280;2026;51.002;13.668;2022-08-11T09:19:53;99843.75;;;27.23;29.71
4024;BME280;2026;51.002;13.668;2022-08-11T09:24:59;99844.56;;;27.50;27.14
4024;BME280;2026;51.002;13.668;2022-08-11T09:30:19;99832.22;;;27.96;26.47
4024;BME280;2026;51.002;13.668;2022-08-11T09:35:26;99829.22;;;28.67;25.37
4024;BME280;2026;51.002;13.668;2022-08-11T09:40:29;99831.50;;;27.16;27.24
4024;BME280;2026;51.002;13.668;2022-08-11T09:45:34;99830.06;;;27.54;26.82
4024;BME280;2026;51.002;13.668;2022-08-11T09:50:44;99818.50;;;27.27;26.81
4024;BME280;2026;51.002;13.668;2022-08-11T09:55:48;99810.91;;;27.95;27.75
4024;BME280;2026;51.002;13.668;2022-08-11T10:00:57;99818.81;;;27.43;26.58
4024;BME280;2026;51.002;13.668;2022-08-11T10:06:05;99829.91;;;25.67;29.27
4024;BME280;2026;51.002;13.668;2022-08-11T10:11:35;99821.03;;;26.39;28.24
4024;BME280;2026;51.002;13.668;2022-08-11T10:16:40;99817.34;;;26.75;28.21
4024;BME280;2026;51.002;13.668;2022-08-11T10:21:47;99800.38;;;27.45;26.96
4024;BME280;2026;51.002;13.668;2022-08-11T10:27:12;99800.31;;;28.20;25.94
4024;BME280;2026;51.002;13.668;2022-08-11T10:32:20;99799.03;;;27.69;24.75
4024;BME280;2026;51.002;13.668;2022-08-11T10:38:00;99808.94;;;26.86;25.50
4024;BME280;2026;51.002;13.668;2022-08-11T10:43:16;99785.69;;;27.64;25.39
4024;BME280;2026;51.002;13.668;2022-08-11T10:48:39;99790.19;;;26.81;26.57
4024;BME280;2026;51.002;13.668;2022-08-11T10:53:46;99797.69;;;27.28;25.28
4024;BME280;2026;51.002;13.668;2022-08-11T10:59:12;99778.38;;;28.42;23.86
4024;BME280;2026;51.002;13.668;2022-08-11T11:04:17;99773.13;;;27.77;24.33
4024;BME280;2026;51.002;13.668;2022-08-11T11:09:24;99768.59;;;27.99;24.41
4024;BME280;2026;51.002;13.668;2022-08-11T11:14:31;99755.75;;;26.95;25.34
4024;BME280;2026;51.002;13.668;2022-08-11T11:20:02;99758.44;;;27.96;24.25
4024;BME280;2026;51.002;13.668;2022-08-11T11:25:18;99754.94;;;28.25;23.65
4024;BME280;2026;51.002;13.668;2022-08-11T11:30:27;99750.72;;;28.15;22.51
4024;BME280;2026;51.002;13.668;2022-08-11T11:35:41;99742.91;;;28.65;22.72
4024;BME280;2026;51.002;13.668;2022-08-11T11:40:52;99729.66;;;28.51;22.51
4024;BME280;2026;51.002;13.668;2022-08-11T11:46:10;99730.22;;;27.67;23.29
4024;BME280;2026;51.002;13.668;2022-08-11T11:51:14;99741.22;;;27.53;21.88
4024;BME280;2026;51.002;13.668;2022-08-11T11:56:21;99726.22;;;28.12;22.39
4024;BME280;2026;51.002;13.668;2022-08-11T12:01:26;99723.47;;;28.21;21.91
4024;BME280;2026;51.002;13.668;2022-08-11T12:06:30;99715.56;;;27.77;22.40
4024;BME280;2026;51.002;13.668;2022-08-11T12:11:37;99718.94;;;26.99;23.27
4024;BME280;2026;51.002;13.668;2022-08-11T12:16:58;99723.84;;;25.54;23.66
4024;BME280;2026;51.002;13.668;2022-08-11T12:22:02;99712.88;;;27.02;21.68
4024;BME280;2026;51.002;13.668;2022-08-11T12:27:26;99711.06;;;27.42;21.08
4024;BME280;2026;51.002;13.668;2022-08-11T12:32:31;99698.56;;;27.11;22.18
4024;BME280;2026;51.002;13.668;2022-08-11T12:37:39;99696.34;;;27.13;21.50
4024;BME280;2026;51.002;13.668;2022-08-11T12:42:46;99684.44;;;27.14;21.59
4024;BME280;2026;51.002;13.668;2022-08-11T12:48:23;99701.59;;;27.27;20.94
4024;BME280;2026;51.002;13.668;2022-08-11T12:59:24;99681.09;;;27.17;20.40
4024;BME280;2026;51.002;13.668;2022-08-11T13:04:45;99657.75;;;27.69;20.57
4024;BME280;2026;51.002;13.668;2022-08-11T13:10:00;99672.00;;;27.39;20.65
4024;BME280;2026;51.002;13.668;2022-08-11T13:15:08;99661.03;;;27.36;20.60
4024;BME280;2026;51.002;13.668;2022-08-11T13:20:12;99656.91;;;27.77;20.06
4024;BME280;2026;51.002;13.668;2022-08-11T13:25:20;99649.41;;;27.44;20.95
4024;BME280;2026;51.002;13.668;2022-08-11T13:30:28;99638.50;;;27.31;21.51
4024;BME280;2026;51.002;13.668;2022-08-11T13:35:52;99628.28;;;27.76;20.77
4024;BME280;2026;51.002;13.668;2022-08-11T13:40:56;99634.31;;;27.43;21.56
4024;BME280;2026;51.002;13.668;2022-08-11T13:46:01;99632.91;;;27.37;21.74
4024;BME280;2026;51.002;13.668;2022-08-11T13:51:19;99633.78;;;27.11;21.66
4024;BME280;2026;51.002;13.668;2022-08-11T13:56:37;99626.34;;;26.99;22.04
4024;BME280;2026;51.002;13.668;2022-08-11T14:01:47;99617.06;;;26.17;23.21
4024;BME280;2026;51.002;13.668;2022-08-11T14:07:11;99619.25;;;27.42;22.16
4024;BME280;2026;51.002;13.668;2022-08-11T14:12:20;99615.41;;;27.73;21.91
4024;BME280;2026;51.002;13.668;2022-08-11T14:17:43;99599.25;;;27.94;21.99
4024;BME280;2026;51.002;13.668;2022-08-11T14:22:50;99608.69;;;27.58;21.90
4024;BME280;2026;51.002;13.668;2022-08-11T14:27:54;99593.94;;;28.07;21.32
4024;BME280;2026;51.002;13.668;2022-08-11T14:33:19;99592.47;;;27.58;22.34
4024;BME280;2026;51.002;13.668;2022-08-11T14:38:23;99591.09;;;26.95;23.23
4024;BME280;2026;51.002;13.668;2022-08-11T14:43:26;99594.50;;;26.74;23.82
4024;BME280;2026;51.002;13.668;2022-08-11T14:49:08;99585.91;;;27.38;23.50
4024;BME280;2026;51.002;13.668;2022-08-11T14:54:13;99591.94;;;26.87;23.62
4024;BME280;2026;51.002;13.668;2022-08-11T14:59:34;99612.13;;;26.36;24.41
4024;BME280;2026;51.002;13.668;2022-08-11T15:04:39;99591.47;;;26.76;23.80
4024;BME280;2026;51.002;13.668;2022-08-11T15:09:43;99581.06;;;27.22;23.77
4024;BME280;2026;51.002;13.668;2022-08-11T15:15:08;99575.50;;;27.10;23.15
4024;BME280;2026;51.002;13.668;2022-08-11T15:20:31;99566.34;;;27.41;22.52
4024;BME280;2026;51.002;13.668;2022-08-11T15:25:56;99573.72;;;26.75;23.96
4024;BME280;2026;51.002;13.668;2022-08-11T15:31:01;99568.97;;;26.63;24.10
4024;BME280;2026;51.002;13.668;2022-08-11T15:36:26;99567.78;;;26.90;23.64
4024;BME280;2026;51.002;13.668;2022-08-11T15:41:55;99562.63;;;26.68;23.94
4024;BME280;2026;51.002;13.668;2022-08-11T15:47:19;99555.66;;;27.05;22.89
4024;BME280;2026;51.002;13.668;2022-08-11T15:52:29;99565.97;;;27.12;23.12
4024;BME280;2026;51.002;13.668;2022-08-11T15:57:36;99561.03;;;26.58;23.94
4024;BME280;2026;51.002;13.668;2022-08-11T16:02:56;99558.34;;;26.31;23.78
4024;BME280;2026;51.002;13.668;2022-08-11T16:08:21;99565.63;;;26.48;24.11
4024;BME280;2026;51.002;13.668;2022-08-11T16:13:36;99557.97;;;26.86;23.67
4024;BME280;2026;51.002;13.668;2022-08-11T16:19:00;99540.75;;;26.43;23.74
4024;BME280;2026;51.002;13.668;2022-08-11T16:24:09;99551.22;;;26.44;23.69
4024;BME280;2026;51.002;13.668;2022-08-11T16:29:33;99541.56;;;26.08;24.77
4024;BME280;2026;51.002;13.668;2022-08-11T16:34:39;99534.56;;;26.60;24.37
4024;BME280;2026;51.002;13.668;2022-08-11T16:40:03;99533.00;;;26.32;24.18
4024;BME280;2026;51.002;13.668;2022-08-11T16:45:08;99536.63;;;26.10;24.43
4024;BME280;2026;51.002;13.668;2022-08-11T16:50:34;99536.50;;;25.98;24.68
4024;BME280;2026;51.002;13.668;2022-08-11T16:55:39;99539.59;;;25.73;25.30
4024;BME280;2026;51.002;13.668;2022-08-11T17:00:53;99538.16;;;25.67;25.24
4024;BME280;2026;51.002;13.668;2022-08-11T17:05:59;99542.28;;;25.64;25.64
4024;BME280;2026;51.002;13.668;2022-08-11T17:11:25;99540.81;;;25.40;26.20
4024;BME280;2026;51.002;13.668;2022-08-11T17:16:59;99536.69;;;25.43;26.39
4024;BME280;2026;51.002;13.668;2022-08-11T17:22:05;99539.50;;;25.29;26.17
4024;BME280;2026;51.002;13.668;2022-08-11T17:27:27;99542.34;;;25.24;26.88
4024;BME280;2026;51.002;13.668;2022-08-11T17:32:34;99540.53;;;25.10;26.90
4024;BME280;2026;51.002;13.668;2022-08-11T17:38:03;99539.44;;;25.11;27.18
4024;BME280;2026;51.002;13.668;2022-08-11T17:43:08;99546.72;;;24.79;27.63
4024;BME280;2026;51.002;13.668;2022-08-11T17:48:31;99538.72;;;24.65;27.58
4024;BME280;2026;51.002;13.668;2022-08-11T17:53:37;99544.09;;;24.65;27.48
4024;BME280;2026;51.002;13.668;2022-08-11T17:59:21;99549.06;;;24.49;28.07
4024;BME280;2026;51.002;13.668;2022-08-11T18:04:51;99549.59;;;24.37;28.67
4024;BME280;2026;51.002;13.668;2022-08-11T18:09:55;99559.97;;;24.30;28.33
4024;BME280;2026;51.002;13.668;2022-08-11T18:15:17;99557.75;;;24.09;29.02
4024;BME280;2026;51.002;13.668;2022-08-11T18:20:50;99564.84;;;23.91;29.19
4024;BME280;2026;51.002;13.668;2022-08-11T18:26:11;99571.63;;;23.74;29.10
4024;BME280;2026;51.002;13.668;2022-08-11T18:31:42;99570.44;;;23.52;29.49
4024;BME280;2026;51.002;13.668;2022-08-11T18:37:06;99569.34;;;23.40;30.15
4024;BME280;2026;51.002;13.668;2022-08-11T18:42:31;99571.84;;;23.36;30.00
4024;BME280;2026;51.002;13.668;2022-08-11T18:48:00;99582.16;;;23.15;30.67
4024;BME280;2026;51.002;13.668;2022-08-11T18:53:21;99590.31;;;22.90;30.83
4024;BME280;2026;51.002;13.668;2022-08-11T18:58:44;99586.75;;;22.95;30.79
4024;BME280;2026;51.002;13.668;2022-08-11T19:04:09;99589.00;;;22.74;31.27
4024;BME280;2026;51.002;13.668;2022-08-11T19:09:33;99574.63;;;22.50;31.91
4024;BME280;2026;51.002;13.668;2022-08-11T19:14:56;99573.69;;;22.22;32.71
4024;BME280;2026;51.002;13.668;2022-08-11T19:20:21;99578.94;;;22.08;32.83
4024;BME280;2026;51.002;13.668;2022-08-11T19:25:44;99583.31;;;22.04;33.18
4024;BME280;2026;51.002;13.668;2022-08-11T19:31:07;99579.47;;;21.91;33.38
4024;BME280;2026;51.002;13.668;2022-08-11T19:36:30;99589.59;;;21.69;33.63
4024;BME280;2026;51.002;13.668;2022-08-11T19:41:51;99593.69;;;21.67;33.58
4024;BME280;2026;51.002;13.668;2022-08-11T19:47:12;99590.59;;;21.54;33.79
4024;BME280;2026;51.002;13.668;2022-08-11T19:52:38;99586.41;;;21.43;34.46
4024;BME280;2026;51.002;13.668;2022-08-11T19:58:00;99586.63;;;21.22;35.35
4024;BME280;2026;51.002;13.668;2022-08-11T20:03:21;99597.56;;;20.96;35.87
4024;BME280;2026;51.002;13.668;2022-08-11T20:08:44;99605.41;;;20.82;35.77
4024;BME280;2026;51.002;13.668;2022-08-11T20:14:07;99605.97;;;20.79;36.22
4024;BME280;2026;51.002;13.668;2022-08-11T20:19:30;99612.19;;;20.69;36.66
4024;BME280;2026;51.002;13.668;2022-08-11T20:24:59;99610.50;;;20.39;37.40
4024;BME280;2026;51.002;13.668;2022-08-11T20:30:21;99602.25;;;20.35;36.89
4024;BME280;2026;51.002;13.668;2022-08-11T20:35:41;99597.19;;;20.28;37.52
4024;BME280;2026;51.002;13.668;2022-08-11T20:41:04;99610.38;;;20.14;37.95
4024;BME280;2026;51.002;13.668;2022-08-11T20:46:27;99606.97;;;19.98;38.10
4024;BME280;2026;51.002;13.668;2022-08-11T20:51:48;99612.63;;;19.81;38.96
4024;BME280;2026;51.002;13.668;2022-08-11T20:57:15;99613.47;;;19.66;39.43
4024;BME280;2026;51.002;13.668;2022-08-11T21:02:56;99619.16;;;19.23;40.30
4024;BME280;2026;51.002;13.668;2022-08-11T21:08:38;99624.75;;;19.37;40.54
4024;BME280;2026;51.002;13.668;2022-08-11T21:14:04;99623.69;;;19.17;40.76
4024;BME280;2026;51.002;13.668;2022-08-11T21:19:28;99623.44;;;19.13;40.91
4024;BME280;2026;51.002;13.668;2022-08-11T21:25:08;99623.19;;;19.05;41.62
4024;BME280;2026;51.002;13.668;2022-08-11T21:30:32;99639.41;;;18.93;42.06
4024;BME280;2026;51.002;13.668;2022-08-11T21:35:58;99642.06;;;18.62;42.14
4024;BME280;2026;51.002;13.668;2022-08-11T21:41:19;99643.63;;;18.57;42.63
4024;BME280;2026;51.002;13.668;2022-08-11T21:46:40;99646.66;;;18.02;43.72
4024;BME280;2026;51.002;13.668;2022-08-11T21:52:01;99645.41;;;18.26;43.39
4024;BME280;2026;51.002;13.668;2022-08-11T21:57:22;99642.72;;;18.26;43.29
4024;BME280;2026;51.002;13.668;2022-08-11T22:02:52;99649.06;;;18.09;43.84
4024;BME280;2026;51.002;13.668;2022-08-11T22:08:13;99652.72;;;17.98;44.16
4024;BME280;2026;51.002;13.668;2022-08-11T22:13:34;99651.88;;;17.87;43.85
4024;BME280;2026;51.002;13.668;2022-08-11T22:19:10;99639.03;;;17.68;44.83
4024;BME280;2026;51.002;13.668;2022-08-11T22:24:32;99641.47;;;17.37;45.41
4024;BME280;2026;51.002;13.668;2022-08-11T22:29:53;99644.72;;;17.44;45.01
4024;BME280;2026;51.002;13.668;2022-08-11T22:35:15;99645.25;;;17.46;45.36
4024;BME280;2026;51.002;13.668;2022-08-11T22:40:37;99641.97;;;17.29;45.33
4024;BME280;2026;51.002;13.668;2022-08-11T22:45:58;99640.50;;;17.16;45.48
4024;BME280;2026;51.002;13.668;2022-08-11T22:51:21;99647.28;;;17.01;46.44
4024;BME280;2026;51.002;13.668;2022-08-11T22:56:42;99639.81;;;16.98;46.13
4024;BME280;2026;51.002;13.668;2022-08-11T23:02:05;99648.50;;;16.88;46.39
4024;BME280;2026;51.002;13.668;2022-08-11T23:07:28;99646.50;;;16.73;47.07
4024;BME280;2026;51.002;13.668;2022-08-11T23:12:53;99644.38;;;16.48;47.51
4024;BME280;2026;51.002;13.668;2022-08-11T23:18:13;99643.91;;;16.51;47.30
4024;BME280;2026;51.002;13.668;2022-08-11T23:23:38;99643.47;;;16.59;47.40
4024;BME280;2026;51.002;13.668;2022-08-11T23:29:01;99642.47;;;16.43;47.70
4024;BME280;2026;51.002;13.668;2022-08-11T23:34:27;99642.31;;;16.27;48.21
4024;BME280;2026;51.002;13.668;2022-08-11T23:40:11;99644.41;;;16.03;48.93
4024;BME280;2026;51.002;13.668;2022-08-11T23:45:31;99645.59;;;16.12;48.22
4024;BME280;2026;51.002;13.668;2022-08-11T23:50:52;99634.59;;;16.04;48.37
4024;BME280;2026;51.002;13.668;2022-08-11T23:56:15;99630.00;;;15.99;48.91
